sensor_id;sensor_type;location;lat;lon;timestamp;P1;durP1;ratioP1;P2;durP2;ratioP2
5052;SDS011;2545;50.892;5.740;2023-05-07T00:01:18;6.70;;;4.93;;
5052;SDS011;2545;50.892;5.740;2023-05-07T00:03:43;8.70;;;6.40;;
5052;SDS011;2545;50.892;5.740;2023-05-07T00:06:09;7.40;;;5.97;;
5052;SDS011;2545;50.892;5.740;2023-05-07T00:08:35;8.30;;;5.70;;
5052;SDS011;2545;50.892;5.740;2023-05-07T00:11:00;8.90;;;6.70;;
5052;SDS011;2545;50.892;5.740;2023-05-07T00:13:25;7.43;;;5.70;;
5052;SDS011;2545;50.892;5.740;2023-05-07T00:15:51;12.33;;;5.77;;
5052;SDS011;2545;50.892;5.740;2023-05-07T00:18:16;10.03;;;5.97;;
5052;SDS011;2545;50.892;5.740;2023-05-07T00:20:41;6.57;;;5.93;;
5052;SDS011;2545;50.892;5.740;2023-05-07T00:23:06;6.73;;;5.10;;
5052;SDS011;2545;50.892;5.740;2023-05-07T00:25:32;7.93;;;5.90;;
5052;SDS011;2545;50.892;5.740;2023-05-07T00:27:57;8.93;;;5.57;;
5052;SDS011;2545;50.892;5.740;2023-05-07T00:30:27;7.97;;;5.77;;
5052;SDS011;2545;50.892;5.740;2023-05-07T00:32:52;11.40;;;6.10;;
5052;SDS011;2545;50.892;5.740;2023-05-07T00:35:18;7.80;;;6.07;;
5052;SDS011;2545;50.892;5.740;2023-05-07T00:37:43;9.33;;;5.80;;
5052;SDS011;2545;50.892;5.740;2023-05-07T00:40:09;9.17;;;6.00;;
5052;SDS011;2545;50.892;5.740;2023-05-07T00:42:35;11.73;;;6.93;;
5052;SDS011;2545;50.892;5.740;2023-05-07T00:45:01;9.20;;;6.93;;
5052;SDS011;2545;50.892;5.740;2023-05-07T00:47:27;9.70;;;7.50;;
5052;SDS011;2545;50.892;5.740;2023-05-07T00:49:53;11.10;;;7.27;;
5052;SDS011;2545;50.892;5.740;2023-05-07T00:52:19;10.90;;;6.87;;
5052;SDS011;2545;50.892;5.740;2023-05-07T00:54:47;12.00;;;8.30;;
5052;SDS011;2545;50.892;5.740;2023-05-07T00:57:13;9.87;;;7.50;;
5052;SDS011;2545;50.892;5.740;2023-05-07T00:59:38;14.90;;;6.40;;
5052;SDS011;2545;50.892;5.740;2023-05-07T01:02:04;13.33;;;7.47;;
5052;SDS011;2545;50.892;5.740;2023-05-07T01:04:30;9.13;;;6.90;;
5052;SDS011;2545;50.892;5.740;2023-05-07T01:06:55;9.60;;;7.20;;
5052;SDS011;2545;50.892;5.740;2023-05-07T01:09:23;8.60;;;7.00;;
5052;SDS011;2545;50.892;5.740;2023-05-07T01:11:50;9.03;;;7.57;;
5052;SDS011;2545;50.892;5.740;2023-05-07T01:14:16;15.30;;;7.67;;
5052;SDS011;2545;50.892;5.740;2023-05-07T01:16:42;10.10;;;8.57;;
5052;SDS011;2545;50.892;5.740;2023-05-07T01:19:08;8.97;;;7.30;;
5052;SDS011;2545;50.892;5.740;2023-05-07T01:21:36;8.60;;;7.17;;
5052;SDS011;2545;50.892;5.740;2023-05-07T01:24:02;10.70;;;9.13;;
5052;SDS011;2545;50.892;5.740;2023-05-07T01:26:28;12.87;;;7.73;;
5052;SDS011;2545;50.892;5.740;2023-05-07T01:28:54;13.23;;;9.00;;
5052;SDS011;2545;50.892;5.740;2023-05-07T01:31:19;10.60;;;8.70;;
5052;SDS011;2545;50.892;5.740;2023-05-07T01:33:45;12.07;;;8.10;;
5052;SDS011;2545;50.892;5.740;2023-05-07T01:36:13;12.73;;;7.93;;
5052;SDS011;2545;50.892;5.740;2023-05-07T01:38:39;12.17;;;8.47;;
5052;SDS011;2545;50.892;5.740;2023-05-07T01:41:06;8.97;;;7.43;;
5052;SDS011;2545;50.892;5.740;2023-05-07T01:43:32;10.90;;;7.90;;
5052;SDS011;2545;50.892;5.740;2023-05-07T01:45:58;8.40;;;6.23;;
5052;SDS011;2545;50.892;5.740;2023-05-07T01:48:25;15.33;;;6.90;;
5052;SDS011;2545;50.892;5.740;2023-05-07T01:50:51;8.17;;;7.37;;
5052;SDS011;2545;50.892;5.740;2023-05-07T01:53:16;10.00;;;6.93;;
5052;SDS011;2545;50.892;5.740;2023-05-07T01:55:42;8.10;;;7.27;;
5052;SDS011;2545;50.892;5.740;2023-05-07T01:58:07;11.87;;;7.83;;
5052;SDS011;2545;50.892;5.740;2023-05-07T02:00:33;9.33;;;6.53;;
5052;SDS011;2545;50.892;5.740;2023-05-07T02:02:58;9.60;;;6.80;;
5052;SDS011;2545;50.892;5.740;2023-05-07T02:05:24;7.53;;;6.73;;
5052;SDS011;2545;50.892;5.740;2023-05-07T02:07:49;7.00;;;6.30;;
5052;SDS011;2545;50.892;5.740;2023-05-07T02:10:14;10.13;;;6.53;;
5052;SDS011;2545;50.892;5.740;2023-05-07T02:12:40;7.43;;;6.20;;
5052;SDS011;2545;50.892;5.740;2023-05-07T02:15:05;8.40;;;6.90;;
5052;SDS011;2545;50.892;5.740;2023-05-07T02:17:31;16.33;;;6.93;;
5052;SDS011;2545;50.892;5.740;2023-05-07T02:19:59;7.27;;;5.97;;
5052;SDS011;2545;50.892;5.740;2023-05-07T02:22:25;7.80;;;5.77;;
5052;SDS011;2545;50.892;5.740;2023-05-07T02:24:50;10.10;;;6.23;;
5052;SDS011;2545;50.892;5.740;2023-05-07T02:27:16;16.63;;;7.17;;
5052;SDS011;2545;50.892;5.740;2023-05-07T02:29:41;12.60;;;6.70;;
5052;SDS011;2545;50.892;5.740;2023-05-07T02:32:06;10.00;;;7.17;;
5052;SDS011;2545;50.892;5.740;2023-05-07T02:34:31;16.50;;;8.40;;
5052;SDS011;2545;50.892;5.740;2023-05-07T02:36:57;10.17;;;7.23;;
5052;SDS011;2545;50.892;5.740;2023-05-07T02:39:22;15.37;;;7.10;;
5052;SDS011;2545;50.892;5.740;2023-05-07T02:41:47;8.43;;;6.93;;
5052;SDS011;2545;50.892;5.740;2023-05-07T02:44:13;11.00;;;7.73;;
5052;SDS011;2545;50.892;5.740;2023-05-07T02:46:38;12.33;;;8.30;;
5052;SDS011;2545;50.892;5.740;2023-05-07T02:49:03;12.13;;;8.43;;
5052;SDS011;2545;50.892;5.740;2023-05-07T02:51:29;13.53;;;8.20;;
5052;SDS011;2545;50.892;5.740;2023-05-07T02:53:56;11.27;;;6.63;;
5052;SDS011;2545;50.892;5.740;2023-05-07T02:56:21;11.13;;;7.70;;
5052;SDS011;2545;50.892;5.740;2023-05-07T02:58:47;10.27;;;7.93;;
5052;SDS011;2545;50.892;5.740;2023-05-07T03:01:12;9.90;;;7.47;;
5052;SDS011;2545;50.892;5.740;2023-05-07T03:03:39;8.60;;;7.33;;
5052;SDS011;2545;50.892;5.740;2023-05-07T03:06:05;10.77;;;8.30;;
5052;SDS011;2545;50.892;5.740;2023-05-07T03:08:31;10.13;;;7.10;;
5052;SDS011;2545;50.892;5.740;2023-05-07T03:10:57;8.50;;;7.10;;
5052;SDS011;2545;50.892;5.740;2023-05-07T03:13:22;8.63;;;7.00;;
5052;SDS011;2545;50.892;5.740;2023-05-07T03:15:48;9.00;;;7.10;;
5052;SDS011;2545;50.892;5.740;2023-05-07T03:18:13;12.80;;;6.40;;
5052;SDS011;2545;50.892;5.740;2023-05-07T03:20:38;7.63;;;6.93;;
5052;SDS011;2545;50.892;5.740;2023-05-07T03:23:03;6.83;;;6.13;;
5052;SDS011;2545;50.892;5.740;2023-05-07T03:25:29;6.80;;;6.10;;
5052;SDS011;2545;50.892;5.740;2023-05-07T03:27:57;8.40;;;6.13;;
5052;SDS011;2545;50.892;5.740;2023-05-07T03:30:23;11.10;;;6.47;;
5052;SDS011;2545;50.892;5.740;2023-05-07T03:32:48;7.63;;;6.60;;
5052;SDS011;2545;50.892;5.740;2023-05-07T03:35:13;8.50;;;6.60;;
5052;SDS011;2545;50.892;5.740;2023-05-07T03:37:39;12.93;;;5.90;;
5052;SDS011;2545;50.892;5.740;2023-05-07T03:40:05;8.77;;;5.83;;
5052;SDS011;2545;50.892;5.740;2023-05-07T03:42:31;8.90;;;6.23;;
5052;SDS011;2545;50.892;5.740;2023-05-07T03:44:56;9.00;;;5.50;;
5052;SDS011;2545;50.892;5.740;2023-05-07T03:47:21;8.63;;;5.77;;
5052;SDS011;2545;50.892;5.740;2023-05-07T03:49:47;8.40;;;5.87;;
5052;SDS011;2545;50.892;5.740;2023-05-07T03:52:13;7.23;;;5.57;;
5052;SDS011;2545;50.892;5.740;2023-05-07T03:54:39;7.37;;;6.00;;
5052;SDS011;2545;50.892;5.740;2023-05-07T03:57:04;8.07;;;6.20;;
5052;SDS011;2545;50.892;5.740;2023-05-07T03:59:30;10.93;;;5.77;;
5052;SDS011;2545;50.892;5.740;2023-05-07T04:01:55;10.07;;;6.27;;
5052;SDS011;2545;50.892;5.740;2023-05-07T04:04:20;7.80;;;5.93;;
5052;SDS011;2545;50.892;5.740;2023-05-07T04:06:46;7.03;;;5.30;;
5052;SDS011;2545;50.892;5.740;2023-05-07T04:09:11;7.50;;;5.70;;
5052;SDS011;2545;50.892;5.740;2023-05-07T04:11:36;11.83;;;6.57;;
5052;SDS011;2545;50.892;5.740;2023-05-07T04:14:02;15.23;;;5.87;;
5052;SDS011;2545;50.892;5.740;2023-05-07T04:16:27;9.20;;;5.63;;
5052;SDS011;2545;50.892;5.740;2023-05-07T04:18:52;7.60;;;5.50;;
5052;SDS011;2545;50.892;5.740;2023-05-07T04:21:18;6.47;;;5.07;;
5052;SDS011;2545;50.892;5.740;2023-05-07T04:23:45;11.40;;;5.60;;
5052;SDS011;2545;50.892;5.740;2023-05-07T04:26:11;5.93;;;5.23;;
5052;SDS011;2545;50.892;5.740;2023-05-07T04:28:37;10.50;;;5.17;;
5052;SDS011;2545;50.892;5.740;2023-05-07T04:31:04;10.97;;;5.60;;
5052;SDS011;2545;50.892;5.740;2023-05-07T04:33:29;6.90;;;4.77;;
5052;SDS011;2545;50.892;5.740;2023-05-07T04:35:55;4.83;;;4.33;;
5052;SDS011;2545;50.892;5.740;2023-05-07T04:38:20;11.77;;;6.50;;
5052;SDS011;2545;50.892;5.740;2023-05-07T04:40:45;8.10;;;6.47;;
5052;SDS011;2545;50.892;5.740;2023-05-07T04:43:11;10.27;;;7.10;;
5052;SDS011;2545;50.892;5.740;2023-05-07T04:45:38;8.10;;;5.30;;
5052;SDS011;2545;50.892;5.740;2023-05-07T04:48:06;8.03;;;5.43;;
5052;SDS011;2545;50.892;5.740;2023-05-07T04:50:31;8.60;;;5.17;;
5052;SDS011;2545;50.892;5.740;2023-05-07T04:52:57;7.00;;;5.17;;
5052;SDS011;2545;50.892;5.740;2023-05-07T04:55:22;8.83;;;5.80;;
5052;SDS011;2545;50.892;5.740;2023-05-07T04:57:47;11.40;;;7.33;;
5052;SDS011;2545;50.892;5.740;2023-05-07T05:00:12;6.63;;;5.43;;
5052;SDS011;2545;50.892;5.740;2023-05-07T05:02:39;6.50;;;5.83;;
5052;SDS011;2545;50.892;5.740;2023-05-07T05:05:05;11.90;;;7.77;;
5052;SDS011;2545;50.892;5.740;2023-05-07T05:07:32;8.60;;;7.70;;
5052;SDS011;2545;50.892;5.740;2023-05-07T05:09:57;13.57;;;8.00;;
5052;SDS011;2545;50.892;5.740;2023-05-07T05:12:22;10.33;;;7.93;;
5052;SDS011;2545;50.892;5.740;2023-05-07T05:14:48;9.03;;;7.43;;
5052;SDS011;2545;50.892;5.740;2023-05-07T05:17:13;10.43;;;8.30;;
5052;SDS011;2545;50.892;5.740;2023-05-07T05:19:38;11.03;;;7.53;;
5052;SDS011;2545;50.892;5.740;2023-05-07T05:22:03;9.37;;;7.87;;
5052;SDS011;2545;50.892;5.740;2023-05-07T05:24:29;7.73;;;6.77;;
5052;SDS011;2545;50.892;5.740;2023-05-07T05:26:55;12.37;;;7.00;;
5052;SDS011;2545;50.892;5.740;2023-05-07T05:29:21;8.73;;;5.87;;
5052;SDS011;2545;50.892;5.740;2023-05-07T05:31:46;6.53;;;5.53;;
5052;SDS011;2545;50.892;5.740;2023-05-07T05:34:11;6.73;;;5.17;;
5052;SDS011;2545;50.892;5.740;2023-05-07T05:36:37;7.70;;;5.70;;
5052;SDS011;2545;50.892;5.740;2023-05-07T05:39:02;12.17;;;7.90;;
5052;SDS011;2545;50.892;5.740;2023-05-07T05:41:27;10.87;;;7.37;;
5052;SDS011;2545;50.892;5.740;2023-05-07T05:43:52;11.33;;;6.63;;
5052;SDS011;2545;50.892;5.740;2023-05-07T05:46:18;11.27;;;7.23;;
5052;SDS011;2545;50.892;5.740;2023-05-07T05:48:43;8.37;;;7.13;;
5052;SDS011;2545;50.892;5.740;2023-05-07T05:51:09;8.47;;;7.17;;
5052;SDS011;2545;50.892;5.740;2023-05-07T05:53:34;11.33;;;6.80;;
5052;SDS011;2545;50.892;5.740;2023-05-07T05:56:00;9.23;;;7.07;;
5052;SDS011;2545;50.892;5.740;2023-05-07T05:58:25;10.60;;;6.80;;
5052;SDS011;2545;50.892;5.740;2023-05-07T06:00:50;11.53;;;6.90;;
5052;SDS011;2545;50.892;5.740;2023-05-07T06:03:17;7.10;;;5.87;;
5052;SDS011;2545;50.892;5.740;2023-05-07T06:05:42;11.40;;;5.20;;
5052;SDS011;2545;50.892;5.740;2023-05-07T06:08:08;6.23;;;5.63;;
5052;SDS011;2545;50.892;5.740;2023-05-07T06:10:33;6.70;;;5.37;;
5052;SDS011;2545;50.892;5.740;2023-05-07T06:12:58;11.10;;;5.17;;
5052;SDS011;2545;50.892;5.740;2023-05-07T06:15:24;7.93;;;4.57;;
5052;SDS011;2545;50.892;5.740;2023-05-07T06:17:49;7.60;;;5.50;;
5052;SDS011;2545;50.892;5.740;2023-05-07T06:20:14;7.93;;;4.37;;
5052;SDS011;2545;50.892;5.740;2023-05-07T06:22:40;7.70;;;3.57;;
5052;SDS011;2545;50.892;5.740;2023-05-07T06:25:05;5.53;;;3.50;;
5052;SDS011;2545;50.892;5.740;2023-05-07T06:27:31;6.50;;;3.93;;
5052;SDS011;2545;50.892;5.740;2023-05-07T06:29:57;4.33;;;3.80;;
5052;SDS011;2545;50.892;5.740;2023-05-07T06:32:22;9.87;;;5.23;;
5052;SDS011;2545;50.892;5.740;2023-05-07T06:34:47;8.40;;;5.60;;
5052;SDS011;2545;50.892;5.740;2023-05-07T06:37:13;10.93;;;5.80;;
5052;SDS011;2545;50.892;5.740;2023-05-07T06:39:38;7.03;;;5.30;;
5052;SDS011;2545;50.892;5.740;2023-05-07T06:42:03;9.13;;;6.10;;
5052;SDS011;2545;50.892;5.740;2023-05-07T06:44:29;7.00;;;5.47;;
5052;SDS011;2545;50.892;5.740;2023-05-07T06:46:55;5.97;;;4.43;;
5052;SDS011;2545;50.892;5.740;2023-05-07T06:49:20;10.90;;;5.23;;
5052;SDS011;2545;50.892;5.740;2023-05-07T06:51:46;10.47;;;3.83;;
5052;SDS011;2545;50.892;5.740;2023-05-07T06:54:11;5.80;;;3.80;;
5052;SDS011;2545;50.892;5.740;2023-05-07T06:56:36;6.30;;;3.40;;
5052;SDS011;2545;50.892;5.740;2023-05-07T06:59:02;9.10;;;3.70;;
5052;SDS011;2545;50.892;5.740;2023-05-07T07:01:27;5.70;;;3.30;;
5052;SDS011;2545;50.892;5.740;2023-05-07T07:03:53;5.10;;;3.07;;
5052;SDS011;2545;50.892;5.740;2023-05-07T07:06:18;3.33;;;2.80;;
5052;SDS011;2545;50.892;5.740;2023-05-07T07:08:44;8.17;;;2.67;;
5052;SDS011;2545;50.892;5.740;2023-05-07T07:11:09;3.87;;;2.60;;
5052;SDS011;2545;50.892;5.740;2023-05-07T07:13:35;2.83;;;2.53;;
5052;SDS011;2545;50.892;5.740;2023-05-07T07:16:00;5.20;;;3.50;;
5052;SDS011;2545;50.892;5.740;2023-05-07T07:18:26;15.40;;;3.77;;
5052;SDS011;2545;50.892;5.740;2023-05-07T07:20:51;7.93;;;3.20;;
5052;SDS011;2545;50.892;5.740;2023-05-07T07:23:17;5.43;;;3.13;;
5052;SDS011;2545;50.892;5.740;2023-05-07T07:25:42;5.73;;;3.20;;
5052;SDS011;2545;50.892;5.740;2023-05-07T07:28:07;7.73;;;3.20;;
5052;SDS011;2545;50.892;5.740;2023-05-07T07:30:33;14.03;;;3.50;;
5052;SDS011;2545;50.892;5.740;2023-05-07T07:32:58;3.60;;;2.67;;
5052;SDS011;2545;50.892;5.740;2023-05-07T07:35:27;5.00;;;2.87;;
5052;SDS011;2545;50.892;5.740;2023-05-07T07:37:53;6.23;;;3.13;;
5052;SDS011;2545;50.892;5.740;2023-05-07T07:40:19;4.30;;;3.13;;
5052;SDS011;2545;50.892;5.740;2023-05-07T07:42:44;4.87;;;2.90;;
5052;SDS011;2545;50.892;5.740;2023-05-07T07:45:09;4.60;;;2.67;;
5052;SDS011;2545;50.892;5.740;2023-05-07T07:47:35;3.37;;;2.73;;
5052;SDS011;2545;50.892;5.740;2023-05-07T07:50:00;3.33;;;2.60;;
5052;SDS011;2545;50.892;5.740;2023-05-07T07:52:25;4.97;;;2.87;;
5052;SDS011;2545;50.892;5.740;2023-05-07T07:54:51;7.37;;;3.50;;
5052;SDS011;2545;50.892;5.740;2023-05-07T07:57:16;3.30;;;2.40;;
5052;SDS011;2545;50.892;5.740;2023-05-07T07:59:41;5.43;;;2.50;;
5052;SDS011;2545;50.892;5.740;2023-05-07T08:02:08;4.13;;;2.50;;
5052;SDS011;2545;50.892;5.740;2023-05-07T08:04:33;13.03;;;3.43;;
5052;SDS011;2545;50.892;5.740;2023-05-07T08:06:59;4.63;;;2.60;;
5052;SDS011;2545;50.892;5.740;2023-05-07T08:09:24;2.83;;;2.30;;
5052;SDS011;2545;50.892;5.740;2023-05-07T08:11:49;6.70;;;2.40;;
5052;SDS011;2545;50.892;5.740;2023-05-07T08:14:15;12.33;;;2.47;;
5052;SDS011;2545;50.892;5.740;2023-05-07T08:16:41;3.07;;;2.17;;
5052;SDS011;2545;50.892;5.740;2023-05-07T08:19:06;6.73;;;2.80;;
5052;SDS011;2545;50.892;5.740;2023-05-07T08:21:31;3.23;;;2.10;;
5052;SDS011;2545;50.892;5.740;2023-05-07T08:23:57;6.23;;;2.20;;
5052;SDS011;2545;50.892;5.740;2023-05-07T08:26:22;3.40;;;2.33;;
5052;SDS011;2545;50.892;5.740;2023-05-07T08:28:47;5.47;;;2.30;;
5052;SDS011;2545;50.892;5.740;2023-05-07T08:31:13;5.63;;;2.60;;
5052;SDS011;2545;50.892;5.740;2023-05-07T08:33:38;4.60;;;2.90;;
5052;SDS011;2545;50.892;5.740;2023-05-07T08:36:04;3.10;;;2.40;;
5052;SDS011;2545;50.892;5.740;2023-05-07T08:38:30;5.60;;;2.70;;
5052;SDS011;2545;50.892;5.740;2023-05-07T08:40:55;3.40;;;2.23;;
5052;SDS011;2545;50.892;5.740;2023-05-07T08:43:21;3.57;;;2.63;;
5052;SDS011;2545;50.892;5.740;2023-05-07T08:45:48;3.37;;;2.10;;
5052;SDS011;2545;50.892;5.740;2023-05-07T08:48:17;4.23;;;2.20;;
5052;SDS011;2545;50.892;5.740;2023-05-07T08:50:42;10.97;;;1.97;;
5052;SDS011;2545;50.892;5.740;2023-05-07T08:53:08;4.43;;;2.20;;
5052;SDS011;2545;50.892;5.740;2023-05-07T08:55:34;3.87;;;2.50;;
5052;SDS011;2545;50.892;5.740;2023-05-07T08:57:59;8.30;;;2.53;;
5052;SDS011;2545;50.892;5.740;2023-05-07T09:00:26;6.20;;;2.60;;
5052;SDS011;2545;50.892;5.740;2023-05-07T09:02:52;4.63;;;2.43;;
5052;SDS011;2545;50.892;5.740;2023-05-07T09:05:18;4.47;;;2.03;;
5052;SDS011;2545;50.892;5.740;2023-05-07T09:07:44;5.47;;;2.10;;
5052;SDS011;2545;50.892;5.740;2023-05-07T09:10:09;4.57;;;2.00;;
5052;SDS011;2545;50.892;5.740;2023-05-07T09:12:35;3.20;;;1.93;;
5052;SDS011;2545;50.892;5.740;2023-05-07T09:15:01;3.57;;;2.10;;
5052;SDS011;2545;50.892;5.740;2023-05-07T09:17:27;3.43;;;2.30;;
5052;SDS011;2545;50.892;5.740;2023-05-07T09:19:53;4.30;;;2.70;;
5052;SDS011;2545;50.892;5.740;2023-05-07T09:22:18;8.23;;;2.80;;
5052;SDS011;2545;50.892;5.740;2023-05-07T09:24:50;4.37;;;2.40;;
5052;SDS011;2545;50.892;5.740;2023-05-07T09:27:17;5.20;;;2.53;;
5052;SDS011;2545;50.892;5.740;2023-05-07T09:29:43;3.80;;;2.40;;
5052;SDS011;2545;50.892;5.740;2023-05-07T09:32:09;5.70;;;2.40;;
5052;SDS011;2545;50.892;5.740;2023-05-07T09:34:34;5.77;;;2.43;;
5052;SDS011;2545;50.892;5.740;2023-05-07T09:37:05;4.50;;;2.27;;
5052;SDS011;2545;50.892;5.740;2023-05-07T09:39:47;2.77;;;1.90;;
5052;SDS011;2545;50.892;5.740;2023-05-07T09:42:14;2.83;;;1.93;;
5052;SDS011;2545;50.892;5.740;2023-05-07T09:44:45;3.63;;;2.43;;
5052;SDS011;2545;50.892;5.740;2023-05-07T09:47:12;3.53;;;2.23;;
5052;SDS011;2545;50.892;5.740;2023-05-07T09:49:47;5.50;;;2.10;;
5052;SDS011;2545;50.892;5.740;2023-05-07T09:52:13;8.87;;;2.67;;
5052;SDS011;2545;50.892;5.740;2023-05-07T09:54:39;4.70;;;2.20;;
5052;SDS011;2545;50.892;5.740;2023-05-07T09:57:07;2.90;;;2.30;;
5052;SDS011;2545;50.892;5.740;2023-05-07T09:59:36;4.07;;;2.20;;
5052;SDS011;2545;50.892;5.740;2023-05-07T10:02:03;7.63;;;2.70;;
5052;SDS011;2545;50.892;5.740;2023-05-07T10:04:29;5.87;;;2.37;;
5052;SDS011;2545;50.892;5.740;2023-05-07T10:06:56;6.23;;;2.70;;
5052;SDS011;2545;50.892;5.740;2023-05-07T10:09:21;5.03;;;2.40;;
5052;SDS011;2545;50.892;5.740;2023-05-07T10:11:48;8.33;;;2.40;;
5052;SDS011;2545;50.892;5.740;2023-05-07T10:14:14;3.10;;;2.50;;
5052;SDS011;2545;50.892;5.740;2023-05-07T10:16:39;6.83;;;2.47;;
5052;SDS011;2545;50.892;5.740;2023-05-07T10:19:06;2.90;;;1.77;;
5052;SDS011;2545;50.892;5.740;2023-05-07T10:21:35;5.63;;;1.97;;
5052;SDS011;2545;50.892;5.740;2023-05-07T10:24:06;3.80;;;2.10;;
5052;SDS011;2545;50.892;5.740;2023-05-07T10:26:38;1.93;;;1.67;;
5052;SDS011;2545;50.892;5.740;2023-05-07T10:29:15;2.30;;;1.70;;
5052;SDS011;2545;50.892;5.740;2023-05-07T10:35:04;4.53;;;2.23;;
5052;SDS011;2545;50.892;5.740;2023-05-07T10:37:35;4.13;;;2.10;;
5052;SDS011;2545;50.892;5.740;2023-05-07T10:40:01;4.17;;;1.93;;
5052;SDS011;2545;50.892;5.740;2023-05-07T10:42:27;5.93;;;2.30;;
5052;SDS011;2545;50.892;5.740;2023-05-07T10:44:52;6.13;;;3.00;;
5052;SDS011;2545;50.892;5.740;2023-05-07T10:47:18;6.77;;;4.27;;
5052;SDS011;2545;50.892;5.740;2023-05-07T10:52:12;7.70;;;4.20;;
5052;SDS011;2545;50.892;5.740;2023-05-07T10:54:42;8.37;;;4.10;;
5052;SDS011;2545;50.892;5.740;2023-05-07T10:59:53;9.57;;;5.00;;
5052;SDS011;2545;50.892;5.740;2023-05-07T11:02:19;8.30;;;5.33;;
5052;SDS011;2545;50.892;5.740;2023-05-07T11:04:45;10.73;;;5.77;;
5052;SDS011;2545;50.892;5.740;2023-05-07T11:07:30;12.30;;;5.87;;
5052;SDS011;2545;50.892;5.740;2023-05-07T11:09:59;14.20;;;5.60;;
5052;SDS011;2545;50.892;5.740;2023-05-07T11:15:04;12.77;;;5.57;;
5052;SDS011;2545;50.892;5.740;2023-05-07T11:17:56;12.30;;;6.70;;
5052;SDS011;2545;50.892;5.740;2023-05-07T11:26:07;9.50;;;5.60;;
5052;SDS011;2545;50.892;5.740;2023-05-07T11:28:38;9.80;;;5.63;;
5052;SDS011;2545;50.892;5.740;2023-05-07T11:31:04;14.60;;;5.73;;
5052;SDS011;2545;50.892;5.740;2023-05-07T11:33:30;8.67;;;5.50;;
5052;SDS011;2545;50.892;5.740;2023-05-07T11:35:57;9.50;;;5.20;;
5052;SDS011;2545;50.892;5.740;2023-05-07T11:38:22;11.27;;;5.57;;
5052;SDS011;2545;50.892;5.740;2023-05-07T11:40:50;14.40;;;4.80;;
5052;SDS011;2545;50.892;5.740;2023-05-07T11:43:16;9.30;;;5.40;;
5052;SDS011;2545;50.892;5.740;2023-05-07T11:45:41;7.90;;;5.50;;
5052;SDS011;2545;50.892;5.740;2023-05-07T11:48:06;9.40;;;5.20;;
5052;SDS011;2545;50.892;5.740;2023-05-07T11:50:32;19.53;;;6.23;;
5052;SDS011;2545;50.892;5.740;2023-05-07T11:52:57;8.47;;;4.90;;
5052;SDS011;2545;50.892;5.740;2023-05-07T11:55:23;9.50;;;5.00;;
5052;SDS011;2545;50.892;5.740;2023-05-07T11:57:49;11.30;;;4.87;;
5052;SDS011;2545;50.892;5.740;2023-05-07T12:00:15;12.93;;;5.47;;
5052;SDS011;2545;50.892;5.740;2023-05-07T12:02:41;12.03;;;5.10;;
5052;SDS011;2545;50.892;5.740;2023-05-07T12:05:07;8.47;;;4.60;;
5052;SDS011;2545;50.892;5.740;2023-05-07T12:07:33;11.90;;;5.37;;
5052;SDS011;2545;50.892;5.740;2023-05-07T12:09:59;8.80;;;5.87;;
5052;SDS011;2545;50.892;5.740;2023-05-07T12:12:24;8.53;;;4.83;;
5052;SDS011;2545;50.892;5.740;2023-05-07T12:14:49;13.73;;;5.70;;
5052;SDS011;2545;50.892;5.740;2023-05-07T12:17:15;15.53;;;4.97;;
5052;SDS011;2545;50.892;5.740;2023-05-07T12:19:41;11.03;;;5.03;;
5052;SDS011;2545;50.892;5.740;2023-05-07T12:22:08;10.20;;;6.07;;
5052;SDS011;2545;50.892;5.740;2023-05-07T12:27:16;10.03;;;4.20;;
5052;SDS011;2545;50.892;5.740;2023-05-07T12:29:48;14.27;;;5.00;;
5052;SDS011;2545;50.892;5.740;2023-05-07T12:32:15;17.50;;;5.93;;
5052;SDS011;2545;50.892;5.740;2023-05-07T12:34:42;11.33;;;4.80;;
5052;SDS011;2545;50.892;5.740;2023-05-07T12:37:07;10.13;;;4.43;;
5052;SDS011;2545;50.892;5.740;2023-05-07T12:39:33;10.13;;;4.13;;
5052;SDS011;2545;50.892;5.740;2023-05-07T12:41:58;10.33;;;4.80;;
5052;SDS011;2545;50.892;5.740;2023-05-07T12:44:25;12.00;;;3.90;;
5052;SDS011;2545;50.892;5.740;2023-05-07T12:46:54;6.90;;;3.93;;
5052;SDS011;2545;50.892;5.740;2023-05-07T12:49:19;9.33;;;4.97;;
5052;SDS011;2545;50.892;5.740;2023-05-07T12:51:46;10.43;;;4.90;;
5052;SDS011;2545;50.892;5.740;2023-05-07T12:54:12;7.30;;;4.70;;
5052;SDS011;2545;50.892;5.740;2023-05-07T12:56:37;10.50;;;5.20;;
5052;SDS011;2545;50.892;5.740;2023-05-07T12:59:03;9.30;;;5.80;;
5052;SDS011;2545;50.892;5.740;2023-05-07T13:01:29;16.83;;;6.40;;
5052;SDS011;2545;50.892;5.740;2023-05-07T13:03:56;9.87;;;5.00;;
5052;SDS011;2545;50.892;5.740;2023-05-07T13:06:25;13.10;;;4.90;;
5052;SDS011;2545;50.892;5.740;2023-05-07T13:08:51;14.97;;;3.63;;
5052;SDS011;2545;50.892;5.740;2023-05-07T13:11:16;11.77;;;4.00;;
5052;SDS011;2545;50.892;5.740;2023-05-07T13:13:42;6.70;;;3.60;;
5052;SDS011;2545;50.892;5.740;2023-05-07T13:16:08;13.30;;;4.13;;
5052;SDS011;2545;50.892;5.740;2023-05-07T13:18:35;8.20;;;3.73;;
5052;SDS011;2545;50.892;5.740;2023-05-07T13:21:01;10.77;;;3.47;;
5052;SDS011;2545;50.892;5.740;2023-05-07T13:23:27;10.13;;;3.40;;
5052;SDS011;2545;50.892;5.740;2023-05-07T13:25:53;9.13;;;3.40;;
5052;SDS011;2545;50.892;5.740;2023-05-07T13:28:22;10.13;;;3.80;;
5052;SDS011;2545;50.892;5.740;2023-05-07T13:30:50;5.93;;;3.07;;
5052;SDS011;2545;50.892;5.740;2023-05-07T13:33:17;5.70;;;2.80;;
5052;SDS011;2545;50.892;5.740;2023-05-07T13:35:42;7.50;;;3.07;;
5052;SDS011;2545;50.892;5.740;2023-05-07T13:38:07;9.83;;;3.60;;
5052;SDS011;2545;50.892;5.740;2023-05-07T13:40:33;10.60;;;3.03;;
5052;SDS011;2545;50.892;5.740;2023-05-07T13:42:58;8.67;;;3.70;;
5052;SDS011;2545;50.892;5.740;2023-05-07T13:45:25;7.73;;;3.53;;
5052;SDS011;2545;50.892;5.740;2023-05-07T13:47:51;9.30;;;3.53;;
5052;SDS011;2545;50.892;5.740;2023-05-07T13:50:17;7.67;;;3.30;;
5052;SDS011;2545;50.892;5.740;2023-05-07T13:52:42;7.10;;;2.67;;
5052;SDS011;2545;50.892;5.740;2023-05-07T13:55:10;7.33;;;3.33;;
5052;SDS011;2545;50.892;5.740;2023-05-07T13:57:36;4.97;;;2.40;;
5052;SDS011;2545;50.892;5.740;2023-05-07T14:00:02;6.07;;;2.67;;
5052;SDS011;2545;50.892;5.740;2023-05-07T14:02:30;5.93;;;2.90;;
5052;SDS011;2545;50.892;5.740;2023-05-07T14:04:55;4.30;;;2.57;;
5052;SDS011;2545;50.892;5.740;2023-05-07T14:07:21;4.33;;;2.10;;
5052;SDS011;2545;50.892;5.740;2023-05-07T14:09:46;3.67;;;2.50;;
5052;SDS011;2545;50.892;5.740;2023-05-07T14:12:11;9.93;;;2.43;;
5052;SDS011;2545;50.892;5.740;2023-05-07T14:14:37;5.90;;;2.60;;
5052;SDS011;2545;50.892;5.740;2023-05-07T14:17:02;5.20;;;2.40;;
5052;SDS011;2545;50.892;5.740;2023-05-07T14:19:27;4.10;;;2.37;;
5052;SDS011;2545;50.892;5.740;2023-05-07T14:21:52;5.83;;;2.30;;
5052;SDS011;2545;50.892;5.740;2023-05-07T14:24:18;4.30;;;2.50;;
5052;SDS011;2545;50.892;5.740;2023-05-07T14:26:43;4.90;;;2.53;;
5052;SDS011;2545;50.892;5.740;2023-05-07T14:29:10;5.97;;;2.60;;
5052;SDS011;2545;50.892;5.740;2023-05-07T14:31:35;3.50;;;2.70;;
5052;SDS011;2545;50.892;5.740;2023-05-07T14:34:00;4.77;;;2.60;;
5052;SDS011;2545;50.892;5.740;2023-05-07T14:36:26;4.30;;;3.13;;
5052;SDS011;2545;50.892;5.740;2023-05-07T14:38:51;8.30;;;3.33;;
5052;SDS011;2545;50.892;5.740;2023-05-07T14:41:19;11.17;;;3.20;;
5052;SDS011;2545;50.892;5.740;2023-05-07T14:43:46;8.30;;;3.70;;
5052;SDS011;2545;50.892;5.740;2023-05-07T14:46:15;11.43;;;2.97;;
5052;SDS011;2545;50.892;5.740;2023-05-07T14:48:41;3.70;;;2.40;;
5052;SDS011;2545;50.892;5.740;2023-05-07T14:51:08;3.90;;;2.90;;
5052;SDS011;2545;50.892;5.740;2023-05-07T14:53:33;9.43;;;3.70;;
5052;SDS011;2545;50.892;5.740;2023-05-07T14:55:58;6.13;;;2.37;;
5052;SDS011;2545;50.892;5.740;2023-05-07T14:58:25;5.53;;;2.53;;
5052;SDS011;2545;50.892;5.740;2023-05-07T15:00:50;15.73;;;3.23;;
5052;SDS011;2545;50.892;5.740;2023-05-07T15:03:15;5.30;;;2.90;;
5052;SDS011;2545;50.892;5.740;2023-05-07T15:05:41;9.53;;;2.90;;
5052;SDS011;2545;50.892;5.740;2023-05-07T15:08:06;9.10;;;3.00;;
5052;SDS011;2545;50.892;5.740;2023-05-07T15:10:34;7.00;;;2.73;;
5052;SDS011;2545;50.892;5.740;2023-05-07T15:13:05;4.93;;;2.67;;
5052;SDS011;2545;50.892;5.740;2023-05-07T15:15:30;9.27;;;2.97;;
5052;SDS011;2545;50.892;5.740;2023-05-07T15:17:56;5.83;;;2.70;;
5052;SDS011;2545;50.892;5.740;2023-05-07T15:20:21;6.47;;;3.17;;
5052;SDS011;2545;50.892;5.740;2023-05-07T15:22:46;6.20;;;2.70;;